createdAt,value
2018-05-27T00:02:24.533Z,99.90
2018-05-27T00:04:54.999Z,99.90
2018-05-27T00:07:24.499Z,99.90
2018-05-27T00:09:54.077Z,99.90
2018-05-27T00:12:24.369Z,99.90
2018-05-27T00:14:54.047Z,99.90
2018-05-27T00:17:23.632Z,99.90
2018-05-27T00:19:53.182Z,99.90
2018-05-27T00:22:23.474Z,99.90
2018-05-27T00:24:53.051Z,99.90
2018-05-27T00:27:23.325Z,99.90
2018-05-27T00:29:52.833Z,99.90
2018-05-27T00:32:22.345Z,99.90
2018-05-27T00:34:51.855Z,99.90
2018-05-27T00:37:21.369Z,99.90
2018-05-27T00:39:50.879Z,99.90
2018-05-27T00:42:20.387Z,99.90
2018-05-27T00:44:49.877Z,99.90
2018-05-27T00:47:19.392Z,99.90
2018-05-27T00:49:48.962Z,99.90
2018-05-27T00:52:19.405Z,99.90
2018-05-27T00:54:48.922Z,99.90
2018-05-27T00:57:18.902Z,99.90
2018-05-27T00:59:48.318Z,99.90
2018-05-27T01:02:17.798Z,99.90
2018-05-27T01:04:47.361Z,99.90
2018-05-27T01:07:17.355Z,99.90
2018-05-27T01:09:46.647Z,99.90
2018-05-27T01:12:16.174Z,99.90
2018-05-27T01:14:45.410Z,99.90
2018-05-27T01:17:15.712Z,99.90
2018-05-27T01:19:44.930Z,99.90
2018-05-27T01:22:14.177Z,99.90
2018-05-27T01:24:43.660Z,99.90
2018-05-27T01:27:13.220Z,99.90
2018-05-27T01:29:42.728Z,99.90
2018-05-27T01:32:12.524Z,99.90
2018-05-27T01:34:42.050Z,99.90
2018-05-27T01:37:11.558Z,99.90
2018-05-27T01:39:41.566Z,99.90
2018-05-27T01:42:11.138Z,99.90
2018-05-27T01:44:41.696Z,99.90
2018-05-27T01:47:11.494Z,99.90
2018-05-27T01:49:41.272Z,99.90
2018-05-27T01:52:10.521Z,99.90
2018-05-27T01:54:40.328Z,99.90
2018-05-27T01:57:10.096Z,99.90
2018-05-27T01:59:39.909Z,99.90
2018-05-27T02:02:09.446Z,99.90
2018-05-27T02:04:38.984Z,99.90
2018-05-27T02:07:08.494Z,99.90
2018-05-27T02:09:38.820Z,99.90
2018-05-27T02:12:08.580Z,99.90
2018-05-27T02:14:39.138Z,99.90
2018-05-27T02:17:08.936Z,99.90
2018-05-27T02:19:38.720Z,99.90
2018-05-27T02:22:07.755Z,99.90
2018-05-27T02:24:37.570Z,99.90
2018-05-27T02:27:07.516Z,99.90
2018-05-27T02:29:38.101Z,99.90
2018-05-27T02:32:07.879Z,99.90
2018-05-27T02:34:37.752Z,99.90
2018-05-27T02:37:07.268Z,99.90
2018-05-27T02:39:37.052Z,99.90
2018-05-27T02:42:06.852Z,99.90
2018-05-27T02:44:37.531Z,99.90
2018-05-27T02:47:07.490Z,99.90
2018-05-27T02:49:38.047Z,99.90
2018-05-27T02:52:07.834Z,99.90
2018-05-27T02:54:37.284Z,99.90
2018-05-27T02:57:06.770Z,99.90
2018-05-27T02:59:36.570Z,99.90
2018-05-27T03:02:06.386Z,99.90
2018-05-27T03:04:36.140Z,99.90
2018-05-27T03:07:05.939Z,99.90
2018-05-27T03:09:35.440Z,99.90
2018-05-27T03:12:04.965Z,99.90
2018-05-27T03:14:34.782Z,99.90
2018-05-27T03:17:04.600Z,99.90
2018-05-27T03:19:34.020Z,99.90
2018-05-27T03:22:04.559Z,99.90
2018-05-27T03:24:35.130Z,99.90
2018-05-27T03:27:04.913Z,99.90
2018-05-27T03:29:35.476Z,99.90
2018-05-27T03:32:05.012Z,99.90
2018-05-27T03:34:34.788Z,99.90
2018-05-27T03:37:04.543Z,99.90
2018-05-27T03:39:34.342Z,99.90
2018-05-27T03:42:03.802Z,99.90
2018-05-27T03:44:33.609Z,99.90
2018-05-27T03:47:04.196Z,99.90
2018-05-27T03:49:33.995Z,99.90
2018-05-27T03:52:03.862Z,99.90
2018-05-27T03:54:33.756Z,99.90
2018-05-27T03:57:04.694Z,99.90
2018-05-27T03:59:34.188Z,99.90
2018-05-27T04:02:04.005Z,99.90
2018-05-27T04:04:59.864Z,99.90
2018-05-27T04:07:40.776Z,99.90
2018-05-27T04:10:10.240Z,99.90
2018-05-27T04:12:40.052Z,99.90
2018-05-27T04:15:11.302Z,99.90
2018-05-27T04:17:41.108Z,99.90
2018-05-27T04:20:10.893Z,99.90
2018-05-27T04:22:40.714Z,99.90
2018-05-27T04:25:10.491Z,99.90
2018-05-27T04:27:40.255Z,99.90
2018-05-27T04:30:10.077Z,99.90
2018-05-27T04:32:39.937Z,99.90
2018-05-27T04:35:09.728Z,99.90
2018-05-27T04:37:39.497Z,99.90
2018-05-27T04:40:10.061Z,99.90
2018-05-27T04:42:39.848Z,99.90
2018-05-27T04:45:10.416Z,99.90
2018-05-27T04:47:40.175Z,99.90
2018-05-27T04:50:10.770Z,99.90
2018-05-27T04:52:40.564Z,99.90
2018-05-27T04:55:10.075Z,99.90
2018-05-27T04:57:39.846Z,99.90
2018-05-27T05:00:10.417Z,99.90
2018-05-27T05:02:39.890Z,99.90
2018-05-27T05:05:09.411Z,99.90
2018-05-27T05:07:39.211Z,99.90
2018-05-27T05:10:09.116Z,99.90
2018-05-27T05:12:39.677Z,99.90
2018-05-27T05:15:09.196Z,99.90
2018-05-27T05:17:39.017Z,99.90
2018-05-27T05:20:09.268Z,99.90
2018-05-27T05:22:38.810Z,99.90
2018-05-27T05:25:08.358Z,99.90
2018-05-27T05:27:38.639Z,99.90
2018-05-27T05:30:08.390Z,99.90
2018-05-27T05:32:37.893Z,99.90
2018-05-27T05:35:07.445Z,99.90
2018-05-27T05:37:36.920Z,99.90
2018-05-27T05:40:07.262Z,99.90
2018-05-27T05:42:36.760Z,99.90
2018-05-27T05:45:07.038Z,99.90
2018-05-27T05:47:36.557Z,99.90
2018-05-27T05:50:06.097Z,99.90
2018-05-27T05:52:36.390Z,99.90
2018-05-27T05:55:07.423Z,99.90
2018-05-27T05:57:36.977Z,99.90
2018-05-27T06:00:06.537Z,99.90
2018-05-27T06:02:36.073Z,99.90
2018-05-27T06:05:04.973Z,99.90
2018-05-27T06:07:35.240Z,99.90
2018-05-27T06:10:04.421Z,99.90
2018-05-27T06:12:33.962Z,99.90
2018-05-27T06:15:03.601Z,99.90
2018-05-27T06:17:33.606Z,99.90
2018-05-27T06:20:03.102Z,99.90
2018-05-27T06:22:33.153Z,99.90
2018-05-27T06:25:03.437Z,99.90
2018-05-27T06:27:32.969Z,99.90
2018-05-27T06:30:02.900Z,99.90
2018-05-27T06:32:33.195Z,99.90
2018-05-27T06:35:03.493Z,99.90
2018-05-27T06:37:33.034Z,99.90
2018-05-27T06:40:03.004Z,99.90
2018-05-27T06:42:32.543Z,99.90
2018-05-27T06:45:02.051Z,99.90
2018-05-27T06:47:31.257Z,99.90
2018-05-27T06:50:00.736Z,99.90
2018-05-27T06:52:30.020Z,99.90
2018-05-27T06:55:00.256Z,99.90
2018-05-27T06:57:29.755Z,99.90
2018-05-27T06:59:59.281Z,99.90
2018-05-27T07:02:28.797Z,99.90
2018-05-27T07:04:58.382Z,99.90
2018-05-27T07:07:27.718Z,99.90
2018-05-27T07:09:57.320Z,99.90
2018-05-27T07:12:26.629Z,99.90
2018-05-27T07:14:56.172Z,99.90
2018-05-27T07:17:26.501Z,99.90
2018-05-27T07:19:56.757Z,99.90
2018-05-27T07:22:26.330Z,99.90
2018-05-27T07:24:55.846Z,99.90
2018-05-27T07:27:25.364Z,99.90
2018-05-27T07:29:54.915Z,99.90
2018-05-27T07:32:24.590Z,99.90
2018-05-27T07:34:54.087Z,99.90
2018-05-27T07:37:23.583Z,99.90
2018-05-27T07:39:53.123Z,99.90
2018-05-27T07:42:22.603Z,99.90
2018-05-27T07:44:52.090Z,99.90
2018-05-27T07:47:21.592Z,99.90
2018-05-27T07:49:51.102Z,99.90
2018-05-27T07:52:20.645Z,99.90
2018-05-27T07:54:50.171Z,99.90
2018-05-27T07:57:19.712Z,99.90
2018-05-27T07:59:50.009Z,98.70
2018-05-27T08:02:19.975Z,96.80
2018-05-27T08:04:49.268Z,96.70
2018-05-27T08:07:18.514Z,95.10
2018-05-27T08:09:48.041Z,94.60
2018-05-27T08:12:17.535Z,93.90
2018-05-27T08:14:47.059Z,93.00
2018-05-27T08:17:16.322Z,91.60
2018-05-27T08:19:46.060Z,90.20
2018-05-27T08:22:16.670Z,81.40
2018-05-27T08:24:46.203Z,81.30
2018-05-27T08:27:15.503Z,73.70
2018-05-27T08:29:45.497Z,68.10
2018-05-27T08:32:14.381Z,68.00
2018-05-27T08:34:43.864Z,66.70
2018-05-27T08:37:13.432Z,66.40
2018-05-27T08:39:43.439Z,61.90
2018-05-27T08:42:13.476Z,60.80
2018-05-27T08:44:43.751Z,60.90
2018-05-27T08:47:13.234Z,60.70
2018-05-27T08:49:42.710Z,58.80
2018-05-27T08:52:12.976Z,57.10
2018-05-27T08:54:42.525Z,57.00
2018-05-27T08:57:12.524Z,54.80
2018-05-27T08:59:41.863Z,54.80
2018-05-27T09:02:11.104Z,53.50
2018-05-27T09:04:40.611Z,54.70
2018-05-27T09:07:10.093Z,55.30
2018-05-27T09:09:38.979Z,55.80
2018-05-27T09:12:08.190Z,56.40
2018-05-27T09:14:37.453Z,56.30
2018-05-27T09:17:06.672Z,55.00
2018-05-27T09:19:35.891Z,53.50
2018-05-27T09:22:05.142Z,53.20
2018-05-27T09:24:35.120Z,50.30
2018-05-27T09:27:03.975Z,50.30
2018-05-27T09:29:33.292Z,48.90
2018-05-27T09:32:02.686Z,48.40
2018-05-27T09:34:31.921Z,49.00
2018-05-27T09:37:02.664Z,47.70
2018-05-27T09:39:32.666Z,47.80
2018-05-27T09:42:01.919Z,47.10
2018-05-27T09:44:31.142Z,44.80
2018-05-27T09:47:00.628Z,45.60
2018-05-27T09:49:29.854Z,43.90
2018-05-27T09:51:59.066Z,44.30
2018-05-27T09:54:28.310Z,42.50
2018-05-27T09:56:57.532Z,43.20
2018-05-27T09:59:27.845Z,42.50
2018-05-27T10:01:57.058Z,42.50
2018-05-27T10:04:26.276Z,40.90
2018-05-27T10:06:55.500Z,42.40
2018-05-27T10:09:24.719Z,42.80
2018-05-27T10:11:53.948Z,41.80
2018-05-27T10:14:23.155Z,42.40
2018-05-27T10:16:52.685Z,42.20
2018-05-27T10:19:22.221Z,41.30
2018-05-27T10:21:52.241Z,40.00
2018-05-27T10:24:22.222Z,39.50
2018-05-27T10:26:51.754Z,39.40
2018-05-27T10:29:20.955Z,39.00
2018-05-27T10:31:51.673Z,38.70
2018-05-27T10:34:22.254Z,38.70
2018-05-27T10:36:52.092Z,38.30
2018-05-27T10:39:21.557Z,38.20
2018-05-27T10:41:50.797Z,38.00
2018-05-27T10:44:20.332Z,36.70
2018-05-27T10:46:49.800Z,36.50
2018-05-27T10:49:19.034Z,36.90
2018-05-27T10:51:48.254Z,36.90
2018-05-27T10:54:17.758Z,37.50
2018-05-27T10:56:47.257Z,37.70
2018-05-27T10:59:17.281Z,38.70
2018-05-27T11:01:47.256Z,37.80
2018-05-27T11:04:16.743Z,37.80
2018-05-27T11:06:46.002Z,37.20
2018-05-27T11:09:16.010Z,36.80
2018-05-27T11:11:45.219Z,36.80
2018-05-27T11:14:14.748Z,36.50
2018-05-27T11:16:44.017Z,35.50
2018-05-27T11:19:13.407Z,34.10
2018-05-27T11:21:42.689Z,33.70
2018-05-27T11:24:11.912Z,33.70
2018-05-27T11:26:41.107Z,34.70
2018-05-27T11:29:10.352Z,35.60
2018-05-27T11:31:39.567Z,35.80
2018-05-27T11:34:08.796Z,35.60
2018-05-27T11:36:38.042Z,36.20
2018-05-27T11:39:07.242Z,37.20
2018-05-27T11:41:36.468Z,38.70
2018-05-27T11:44:05.708Z,40.20
2018-05-27T11:46:35.698Z,44.80
2018-05-27T11:49:05.212Z,44.10
2018-05-27T11:51:34.435Z,45.10
2018-05-27T11:54:03.612Z,45.70
2018-05-27T11:56:32.812Z,46.20
2018-05-27T11:59:02.341Z,47.10
2018-05-27T12:01:31.856Z,46.20
2018-05-27T12:04:01.865Z,42.90
2018-05-27T12:06:31.387Z,42.90
2018-05-27T12:09:00.676Z,39.70
2018-05-27T12:11:30.013Z,39.70
2018-05-27T12:13:59.264Z,38.30
2018-05-27T12:16:29.231Z,40.40
2018-05-27T12:18:58.497Z,40.40
2018-05-27T12:21:29.500Z,43.40
2018-05-27T12:23:58.733Z,43.40
2018-05-27T12:26:28.751Z,42.50
2018-05-27T12:28:58.279Z,42.50
2018-05-27T12:31:27.521Z,45.80
2018-05-27T12:33:56.995Z,47.90
2018-05-27T12:36:26.205Z,53.20
2018-05-27T12:38:55.733Z,62.00
2018-05-27T12:41:24.977Z,65.10
2018-05-27T12:43:54.215Z,66.90
2018-05-27T12:46:23.884Z,65.30
2018-05-27T12:48:53.392Z,69.20
2018-05-27T12:51:22.618Z,74.60
2018-05-27T12:53:51.877Z,86.30
2018-05-27T12:56:21.896Z,90.80
2018-05-27T12:58:51.400Z,90.80
2018-05-27T13:01:20.883Z,97.50
2018-05-27T13:03:50.425Z,93.60
2018-05-27T13:06:19.939Z,88.40
2018-05-27T13:08:49.207Z,86.00
2018-05-27T13:11:18.703Z,90.70
2018-05-27T13:13:47.917Z,90.90
2018-05-27T13:16:17.994Z,90.20
2018-05-27T13:18:47.633Z,90.20
2018-05-27T13:21:17.149Z,79.20
2018-05-27T13:23:46.659Z,82.00
2018-05-27T13:26:16.204Z,75.00
2018-05-27T13:28:45.749Z,73.90
2018-05-27T13:31:16.465Z,60.80
2018-05-27T13:33:45.984Z,60.70
2018-05-27T13:36:15.209Z,57.00
2018-05-27T13:38:45.240Z,54.90
2018-05-27T13:41:15.237Z,50.20
2018-05-27T13:43:44.383Z,50.00
2018-05-27T13:46:14.619Z,48.30
2018-05-27T13:48:43.865Z,48.30
2018-05-27T13:51:13.405Z,50.70
2018-05-27T13:53:42.595Z,51.70
2018-05-27T13:56:11.862Z,52.10
2018-05-27T13:58:41.068Z,55.10
2018-05-27T14:01:11.096Z,59.40
2018-05-27T14:03:40.563Z,59.40
2018-05-27T14:06:10.106Z,60.20
2018-05-27T14:08:40.271Z,57.40
2018-05-27T14:11:09.481Z,57.50
2018-05-27T14:13:38.705Z,60.30
2018-05-27T14:16:09.407Z,56.00
2018-05-27T14:18:38.640Z,55.90
2018-05-27T14:21:08.110Z,56.90
2018-05-27T14:23:37.352Z,56.70
2018-05-27T14:26:06.870Z,57.70
2018-05-27T14:28:36.127Z,57.30
2018-05-27T14:31:05.386Z,58.20
2018-05-27T14:33:34.575Z,58.90
2018-05-27T14:36:03.749Z,59.20
2018-05-27T14:38:33.735Z,60.00
2018-05-27T14:41:02.990Z,60.00
2018-05-27T14:43:32.221Z,61.10
2018-05-27T14:46:01.449Z,62.00
2018-05-27T14:48:30.934Z,63.80
2018-05-27T14:51:00.202Z,65.60
2018-05-27T14:53:29.449Z,66.80
2018-05-27T14:55:58.961Z,67.90
2018-05-27T14:58:28.173Z,69.40
2018-05-27T15:00:58.223Z,69.90
2018-05-27T15:03:27.440Z,69.40
2018-05-27T15:05:56.639Z,69.50
2018-05-27T15:08:26.683Z,68.70
2018-05-27T15:10:56.208Z,69.20
2018-05-27T15:13:25.417Z,68.10
2018-05-27T15:15:54.906Z,68.70
2018-05-27T15:18:24.393Z,69.00
2018-05-27T15:20:53.770Z,66.90
2018-05-27T15:23:22.991Z,67.80
2018-05-27T15:25:52.411Z,68.70
2018-05-27T15:28:21.895Z,67.60
2018-05-27T15:30:51.526Z,67.50
2018-05-27T15:33:21.079Z,66.20
2018-05-27T15:35:51.268Z,65.70
2018-05-27T15:38:20.618Z,65.60
2018-05-27T15:40:49.869Z,66.00
2018-05-27T15:43:19.107Z,67.00
2018-05-27T15:45:49.413Z,67.10
2018-05-27T15:48:19.401Z,66.30
2018-05-27T15:50:48.829Z,66.30
2018-05-27T15:53:18.792Z,65.80
2018-05-27T15:55:48.315Z,65.80
2018-05-27T15:58:17.693Z,66.00
2018-05-27T16:00:46.932Z,67.50
2018-05-27T16:03:16.161Z,67.00
2018-05-27T16:05:45.392Z,66.70
2018-05-27T16:08:15.017Z,66.90
2018-05-27T16:10:44.581Z,68.00
2018-05-27T16:13:14.147Z,69.20
2018-05-27T16:15:43.327Z,69.60
2018-05-27T16:18:12.842Z,70.00
2018-05-27T16:20:42.080Z,70.60
2018-05-27T16:23:11.660Z,71.00
2018-05-27T16:25:41.223Z,70.70
2018-05-27T16:28:10.597Z,70.90
2018-05-27T16:30:40.621Z,71.30
2018-05-27T16:33:09.876Z,71.30
2018-05-27T16:35:39.129Z,71.20
2018-05-27T16:38:08.388Z,71.30
2018-05-27T16:40:37.865Z,72.20
2018-05-27T16:43:07.077Z,73.20
2018-05-27T16:45:36.354Z,74.30
2018-05-27T16:48:05.851Z,75.10
2018-05-27T16:50:35.155Z,75.70
2018-05-27T16:53:04.071Z,76.80
2018-05-27T16:55:33.322Z,76.60
2018-05-27T16:58:02.531Z,77.30
2018-05-27T17:00:32.068Z,76.30
2018-05-27T17:03:01.697Z,74.90
2018-05-27T17:05:30.930Z,75.60
2018-05-27T17:08:00.145Z,75.50
2018-05-27T17:10:29.380Z,76.00
2018-05-27T17:12:58.893Z,77.30
2018-05-27T17:15:28.109Z,77.50
2018-05-27T17:17:58.088Z,79.70
2018-05-27T17:20:27.299Z,78.90
2018-05-27T17:22:56.548Z,79.40
2018-05-27T17:25:26.506Z,82.50
2018-05-27T17:27:55.836Z,81.60
2018-05-27T17:30:25.233Z,82.20
2018-05-27T17:32:55.214Z,83.60
2018-05-27T17:35:24.821Z,83.50
2018-05-27T17:37:54.415Z,85.40
2018-05-27T17:40:24.654Z,87.60
2018-05-27T17:42:53.868Z,86.90
2018-05-27T17:45:23.098Z,90.10
2018-05-27T17:47:51.936Z,90.70
2018-05-27T17:50:21.137Z,91.30
2018-05-27T17:52:50.377Z,92.80
2018-05-27T17:55:19.884Z,95.40
2018-05-27T17:57:49.899Z,96.30
2018-05-27T18:00:19.147Z,96.50
2018-05-27T18:02:48.408Z,98.90
2018-05-27T18:05:17.791Z,99.90
2018-05-27T18:07:48.590Z,99.90
2018-05-27T18:10:17.833Z,99.90
2018-05-27T18:12:48.558Z,99.90
2018-05-27T18:15:18.133Z,99.90
2018-05-27T18:17:47.347Z,99.90
2018-05-27T18:20:16.889Z,99.90
2018-05-27T18:22:46.402Z,99.90
2018-05-27T18:25:16.426Z,99.90
2018-05-27T18:27:45.926Z,99.90
2018-05-27T18:30:15.424Z,99.90
2018-05-27T18:32:44.644Z,99.90
2018-05-27T18:35:13.907Z,99.90
2018-05-27T18:37:43.123Z,99.90
2018-05-27T18:40:12.415Z,99.90
2018-05-27T18:42:43.175Z,99.90
2018-05-27T18:45:13.135Z,99.90
2018-05-27T18:47:42.352Z,99.90
2018-05-27T18:50:11.869Z,99.90
2018-05-27T18:52:41.100Z,99.90
2018-05-27T18:55:11.067Z,99.90
2018-05-27T18:57:40.316Z,99.90
2018-05-27T19:00:09.245Z,99.90
2018-05-27T19:02:38.478Z,99.90
2018-05-27T19:05:07.049Z,99.90
2018-05-27T19:07:36.288Z,99.90
2018-05-27T19:10:05.520Z,99.90
2018-05-27T19:12:34.758Z,99.90
2018-05-27T19:15:05.513Z,99.90
2018-05-27T19:17:34.760Z,99.90
2018-05-27T19:20:03.694Z,99.90
2018-05-27T19:22:33.713Z,99.90
2018-05-27T19:25:02.988Z,99.90
2018-05-27T19:27:32.182Z,99.90
2018-05-27T19:30:01.446Z,99.90
2018-05-27T19:32:30.673Z,99.90
2018-05-27T19:34:59.922Z,99.90
2018-05-27T19:37:29.183Z,99.90
2018-05-27T19:39:58.426Z,99.90
2018-05-27T19:42:28.404Z,99.90
2018-05-27T19:44:57.637Z,99.90
2018-05-27T19:47:27.640Z,99.90
2018-05-27T19:49:56.858Z,99.90
2018-05-27T19:52:26.080Z,99.90
2018-05-27T19:54:55.300Z,99.90
2018-05-27T19:57:24.559Z,99.90
2018-05-27T19:59:53.762Z,99.90
2018-05-27T20:02:23.006Z,99.90
2018-05-27T20:04:52.209Z,99.90
2018-05-27T20:07:21.439Z,99.90
2018-05-27T20:09:51.426Z,99.90
2018-05-27T20:12:20.882Z,99.90
2018-05-27T20:14:50.117Z,99.90
2018-05-27T20:17:19.401Z,99.90
2018-05-27T20:19:49.560Z,99.90
2018-05-27T20:22:18.808Z,99.90
2018-05-27T20:24:47.716Z,99.90
2018-05-27T20:27:16.964Z,99.90
2018-05-27T20:29:46.715Z,99.90
2018-05-27T20:32:15.991Z,99.90
2018-05-27T20:34:45.987Z,99.90
2018-05-27T20:37:15.960Z,99.90
2018-05-27T20:39:45.476Z,99.90
2018-05-27T20:42:14.674Z,99.90
2018-05-27T20:44:43.947Z,99.90
2018-05-27T20:47:13.159Z,99.90
2018-05-27T20:49:42.367Z,99.90
2018-05-27T20:52:11.638Z,99.90
2018-05-27T20:54:40.871Z,99.90
2018-05-27T20:57:10.137Z,99.90
2018-05-27T20:59:39.403Z,99.90
2018-05-27T21:02:08.846Z,99.90
2018-05-27T21:04:38.370Z,99.90
2018-05-27T21:07:07.590Z,99.90
2018-05-27T21:09:36.796Z,99.90
2018-05-27T21:12:07.590Z,99.90
2018-05-27T21:14:37.222Z,99.90
2018-05-27T21:17:06.416Z,99.90
2018-05-27T21:19:35.649Z,99.90
2018-05-27T21:22:04.535Z,99.90
2018-05-27T21:24:33.793Z,99.90
2018-05-27T21:27:03.036Z,99.90
2018-05-27T21:29:32.254Z,99.90
2018-05-27T21:32:02.248Z,99.90
2018-05-27T21:34:31.508Z,99.90
2018-05-27T21:37:00.746Z,99.90
2018-05-27T21:39:30.010Z,99.90
2018-05-27T21:41:59.259Z,99.90
2018-05-27T21:44:28.543Z,99.90
2018-05-27T21:46:57.769Z,99.90
2018-05-27T21:49:27.798Z,99.90
2018-05-27T21:51:57.805Z,99.90
2018-05-27T21:54:27.303Z,99.90
2018-05-27T21:56:57.341Z,99.90
2018-05-27T21:59:26.581Z,99.90
2018-05-27T22:01:56.061Z,99.90
2018-05-27T22:04:25.304Z,99.90
2018-05-27T22:06:54.548Z,99.90
2018-05-27T22:09:23.757Z,99.90
2018-05-27T22:11:52.981Z,99.90
2018-05-27T22:14:22.214Z,99.90
2018-05-27T22:16:51.432Z,99.90
2018-05-27T22:19:20.695Z,99.90
2018-05-27T22:21:49.995Z,99.90
2018-05-27T22:24:19.209Z,99.90
2018-05-27T22:26:48.451Z,99.90
2018-05-27T22:29:17.705Z,99.90
2018-05-27T22:31:46.937Z,99.90
2018-05-27T22:34:16.174Z,99.90
2018-05-27T22:36:45.150Z,99.90
2018-05-27T22:39:14.357Z,99.90
2018-05-27T22:41:43.589Z,99.90
2018-05-27T22:44:12.799Z,99.90
2018-05-27T22:46:42.033Z,99.90
2018-05-27T22:49:11.290Z,99.90
2018-05-27T22:51:40.515Z,99.90
2018-05-27T22:54:10.505Z,99.90
2018-05-27T22:56:39.754Z,99.90
2018-05-27T22:59:08.969Z,99.90
2018-05-27T23:01:37.509Z,99.90
2018-05-27T23:04:07.029Z,99.90
2018-05-27T23:06:36.547Z,99.90
2018-05-27T23:09:06.858Z,99.90
2018-05-27T23:11:36.352Z,99.90
2018-05-27T23:14:05.887Z,99.90
2018-05-27T23:16:36.202Z,99.90
2018-05-27T23:19:05.761Z,99.90
2018-05-27T23:21:35.259Z,99.90
2018-05-27T23:24:04.452Z,99.90
2018-05-27T23:26:33.976Z,99.90
2018-05-27T23:29:03.480Z,99.90
2018-05-27T23:31:32.700Z,99.90
2018-05-27T23:34:02.211Z,99.90
2018-05-27T23:36:31.704Z,99.90
2018-05-27T23:39:01.217Z,99.90
2018-05-27T23:41:31.198Z,99.90
2018-05-27T23:44:00.738Z,99.90
2018-05-27T23:46:30.298Z,99.90
2018-05-27T23:49:00.112Z,99.90
2018-05-27T23:51:29.616Z,99.90
2018-05-27T23:53:59.145Z,99.90
2018-05-27T23:56:28.697Z,99.90
2018-05-27T23:58:58.196Z,99.90
